sensor_id;sensor_type;location;lat;lon;timestamp;pressure;altitude;pressure_sealevel;temperature;humidity
2000;BME280;1001;48.87406500;9.59633600;2022-07-24T00:00:08;95489.16;;;21.45;71.64
2000;BME280;1001;48.87406500;9.59633600;2022-07-24T00:02:37;95480.00;;;21.32;72.05
2000;BME280;1001;48.87406500;9.59633600;2022-07-24T00:05:04;95484.75;;;21.35;72.54
2000;BME280;1001;48.87406500;9.59633600;2022-07-24T00:07:31;95491.16;;;21.34;72.88
2000;BME280;1001;48.87406500;9.59633600;2022-07-24T00:09:59;95496.56;;;21.48;72.50
2000;BME280;1001;48.87406500;9.59633600;2022-07-24T00:12:26;95491.88;;;21.58;71.62
2000;BME280;1001;48.87406500;9.59633600;2022-07-24T00:14:53;95491.94;;;21.53;71.79
2000;BME280;1001;48.87406500;9.59633600;2022-07-24T00:17:20;95480.97;;;21.41;72.29
2000;BME280;1001;48.87406500;9.59633600;2022-07-24T00:19:48;95490.22;;;21.44;72.35
2000;BME280;1001;48.87406500;9.59633600;2022-07-24T00:22:14;95492.75;;;21.35;72.69
2000;BME280;1001;48.87406500;9.59633600;2022-07-24T00:24:41;95497.75;;;21.18;73.51
2000;BME280;1001;48.87406500;9.59633600;2022-07-24T00:27:08;95490.78;;;21.22;72.90
2000;BME280;1001;48.87406500;9.59633600;2022-07-24T00:29:34;95486.84;;;21.20;73.00
2000;BME280;1001;48.87406500;9.59633600;2022-07-24T00:32:01;95482.22;;;21.01;73.63
2000;BME280;1001;48.87406500;9.59633600;2022-07-24T00:34:28;95482.69;;;21.09;73.83
2000;BME280;1001;48.87406500;9.59633600;2022-07-24T00:36:56;95484.13;;;21.25;73.35
2000;BME280;1001;48.87406500;9.59633600;2022-07-24T00:39:23;95487.28;;;21.27;73.08
2000;BME280;1001;48.87406500;9.59633600;2022-07-24T00:41:49;95482.81;;;21.22;73.74
2000;BME280;1001;48.87406500;9.59633600;2022-07-24T00:44:19;95489.63;;;21.10;74.36
2000;BME280;1001;48.87406500;9.59633600;2022-07-24T00:46:47;95472.69;;;21.00;74.48
2000;BME280;1001;48.87406500;9.59633600;2022-07-24T00:49:16;95476.47;;;20.94;74.51
2000;BME280;1001;48.87406500;9.59633600;2022-07-24T00:51:45;95472.69;;;21.00;73.80
2000;BME280;1001;48.87406500;9.59633600;2022-07-24T00:54:15;95481.97;;;21.03;74.37
2000;BME280;1001;48.87406500;9.59633600;2022-07-24T00:56:43;95484.13;;;21.01;74.26
2000;BME280;1001;48.87406500;9.59633600;2022-07-24T00:59:13;95489.25;;;20.92;74.57
2000;BME280;1001;48.87406500;9.59633600;2022-07-24T01:01:40;95483.47;;;20.85;74.68
2000;BME280;1001;48.87406500;9.59633600;2022-07-24T01:04:07;95468.94;;;20.78;74.95
2000;BME280;1001;48.87406500;9.59633600;2022-07-24T01:06:35;95479.06;;;20.76;75.77
2000;BME280;1001;48.87406500;9.59633600;2022-07-24T01:09:02;95475.50;;;20.85;75.63
2000;BME280;1001;48.87406500;9.59633600;2022-07-24T01:11:30;95469.56;;;20.93;75.70
2000;BME280;1001;48.87406500;9.59633600;2022-07-24T01:13:57;95475.41;;;20.95;75.53
2000;BME280;1001;48.87406500;9.59633600;2022-07-24T01:16:24;95477.59;;;20.88;76.26
2000;BME280;1001;48.87406500;9.59633600;2022-07-24T01:18:51;95475.06;;;20.78;76.34
2000;BME280;1001;48.87406500;9.59633600;2022-07-24T01:21:19;95471.59;;;20.78;76.41
2000;BME280;1001;48.87406500;9.59633600;2022-07-24T01:23:49;95474.91;;;20.70;78.19
2000;BME280;1001;48.87406500;9.59633600;2022-07-24T01:26:15;95479.38;;;20.74;77.99
2000;BME280;1001;48.87406500;9.59633600;2022-07-24T01:28:42;95476.75;;;20.69;78.53
2000;BME280;1001;48.87406500;9.59633600;2022-07-24T01:31:09;95482.19;;;20.83;78.17
2000;BME280;1001;48.87406500;9.59633600;2022-07-24T01:33:35;95476.06;;;20.82;77.84
2000;BME280;1001;48.87406500;9.59633600;2022-07-24T01:36:02;95476.47;;;20.94;77.30
2000;BME280;1001;48.87406500;9.59633600;2022-07-24T01:38:30;95488.19;;;20.93;76.86
2000;BME280;1001;48.87406500;9.59633600;2022-07-24T01:40:57;95487.69;;;20.91;76.97
2000;BME280;1001;48.87406500;9.59633600;2022-07-24T01:43:24;95484.28;;;20.86;76.51
2000;BME280;1001;48.87406500;9.59633600;2022-07-24T01:45:50;95488.84;;;20.80;76.93
2000;BME280;1001;48.87406500;9.59633600;2022-07-24T01:48:17;95480.88;;;20.80;76.92
2000;BME280;1001;48.87406500;9.59633600;2022-07-24T01:50:44;95471.03;;;20.81;76.36
2000;BME280;1001;48.87406500;9.59633600;2022-07-24T01:53:10;95483.38;;;20.95;76.26
2000;BME280;1001;48.87406500;9.59633600;2022-07-24T01:55:38;95484.69;;;20.98;76.13
2000;BME280;1001;48.87406500;9.59633600;2022-07-24T01:58:05;95484.59;;;21.08;75.52
2000;BME280;1001;48.87406500;9.59633600;2022-07-24T02:00:32;95485.25;;;20.95;75.98
2000;BME280;1001;48.87406500;9.59633600;2022-07-24T02:03:01;95480.63;;;20.82;76.76
2000;BME280;1001;48.87406500;9.59633600;2022-07-24T02:05:29;95475.63;;;20.75;77.56
2000;BME280;1001;48.87406500;9.59633600;2022-07-24T02:07:58;95477.56;;;20.70;77.70
2000;BME280;1001;48.87406500;9.59633600;2022-07-24T02:10:26;95475.63;;;20.75;77.54
2000;BME280;1001;48.87406500;9.59633600;2022-07-24T02:12:55;95474.41;;;20.68;78.39
2000;BME280;1001;48.87406500;9.59633600;2022-07-24T02:15:24;95472.94;;;20.52;78.92
2000;BME280;1001;48.87406500;9.59633600;2022-07-24T02:17:52;95475.34;;;20.53;78.58
2000;BME280;1001;48.87406500;9.59633600;2022-07-24T02:20:19;95475.56;;;20.57;78.71
2000;BME280;1001;48.87406500;9.59633600;2022-07-24T02:22:46;95472.06;;;20.61;78.36
2000;BME280;1001;48.87406500;9.59633600;2022-07-24T02:25:14;95468.88;;;20.59;78.75
2000;BME280;1001;48.87406500;9.59633600;2022-07-24T02:27:41;95462.16;;;20.43;79.15
2000;BME280;1001;48.87406500;9.59633600;2022-07-24T02:30:14;95469.09;;;20.39;79.85
2000;BME280;1001;48.87406500;9.59633600;2022-07-24T02:32:41;95458.28;;;20.30;79.31
2000;BME280;1001;48.87406500;9.59633600;2022-07-24T02:35:08;95459.31;;;20.34;79.69
2000;BME280;1001;48.87406500;9.59633600;2022-07-24T02:37:36;95455.38;;;20.32;80.10
2000;BME280;1001;48.87406500;9.59633600;2022-07-24T02:40:04;95463.50;;;20.41;80.01
2000;BME280;1001;48.87406500;9.59633600;2022-07-24T02:42:31;95454.69;;;20.45;79.37
2000;BME280;1001;48.87406500;9.59633600;2022-07-24T02:44:58;95464.81;;;20.43;79.40
2000;BME280;1001;48.87406500;9.59633600;2022-07-24T02:47:26;95464.59;;;20.40;79.93
2000;BME280;1001;48.87406500;9.59633600;2022-07-24T02:49:53;95467.00;;;20.36;80.57
2000;BME280;1001;48.87406500;9.59633600;2022-07-24T02:52:19;95464.44;;;20.26;80.85
2000;BME280;1001;48.87406500;9.59633600;2022-07-24T02:54:46;95467.69;;;20.18;81.21
2000;BME280;1001;48.87406500;9.59633600;2022-07-24T02:57:15;95464.75;;;20.19;81.88
2000;BME280;1001;48.87406500;9.59633600;2022-07-24T02:59:42;95457.44;;;20.06;81.89
2000;BME280;1001;48.87406500;9.59633600;2022-07-24T03:02:15;95473.13;;;20.03;82.58
2000;BME280;1001;48.87406500;9.59633600;2022-07-24T03:04:43;95470.03;;;19.91;82.93
2000;BME280;1001;48.87406500;9.59633600;2022-07-24T03:07:10;95461.84;;;19.87;83.57
2000;BME280;1001;48.87406500;9.59633600;2022-07-24T03:09:37;95465.84;;;19.85;84.07
2000;BME280;1001;48.87406500;9.59633600;2022-07-24T03:12:04;95466.38;;;19.82;83.82
2000;BME280;1001;48.87406500;9.59633600;2022-07-24T03:14:31;95467.50;;;19.76;84.61
2000;BME280;1001;48.87406500;9.59633600;2022-07-24T03:16:57;95467.75;;;19.74;84.82
2000;BME280;1001;48.87406500;9.59633600;2022-07-24T03:19:24;95469.69;;;19.68;85.51
2000;BME280;1001;48.87406500;9.59633600;2022-07-24T03:21:52;95475.19;;;19.77;85.08
2000;BME280;1001;48.87406500;9.59633600;2022-07-24T03:24:21;95476.22;;;19.81;84.67
2000;BME280;1001;48.87406500;9.59633600;2022-07-24T03:26:48;95469.84;;;19.82;84.44
2000;BME280;1001;48.87406500;9.59633600;2022-07-24T03:29:15;95474.41;;;19.72;84.77
2000;BME280;1001;48.87406500;9.59633600;2022-07-24T03:31:41;95469.94;;;19.67;85.38
2000;BME280;1001;48.87406500;9.59633600;2022-07-24T03:34:09;95466.88;;;19.50;85.32
2000;BME280;1001;48.87406500;9.59633600;2022-07-24T03:36:35;95460.78;;;19.49;86.00
2000;BME280;1001;48.87406500;9.59633600;2022-07-24T03:39:04;95468.28;;;19.37;86.54
2000;BME280;1001;48.87406500;9.59633600;2022-07-24T03:41:30;95463.22;;;19.41;85.84
2000;BME280;1001;48.87406500;9.59633600;2022-07-24T03:43:57;95452.09;;;19.39;87.38
2000;BME280;1001;48.87406500;9.59633600;2022-07-24T03:46:24;95462.66;;;19.49;87.10
2000;BME280;1001;48.87406500;9.59633600;2022-07-24T03:48:53;95461.56;;;19.50;86.85
2000;BME280;1001;48.87406500;9.59633600;2022-07-24T03:51:19;95465.03;;;19.45;86.64
2000;BME280;1001;48.87406500;9.59633600;2022-07-24T03:53:46;95463.97;;;19.51;86.53
2000;BME280;1001;48.87406500;9.59633600;2022-07-24T03:56:15;95470.28;;;19.55;86.46
2000;BME280;1001;48.87406500;9.59633600;2022-07-24T03:58:42;95472.28;;;19.74;85.65
2000;BME280;1001;48.87406500;9.59633600;2022-07-24T04:01:08;95474.38;;;19.77;85.39
2000;BME280;1001;48.87406500;9.59633600;2022-07-24T04:03:35;95467.25;;;19.72;86.27
2000;BME280;1001;48.87406500;9.59633600;2022-07-24T04:06:04;95480.19;;;19.79;85.53
2000;BME280;1001;48.87406500;9.59633600;2022-07-24T04:08:34;95477.34;;;19.70;86.38
2000;BME280;1001;48.87406500;9.59633600;2022-07-24T04:11:01;95495.31;;;19.78;85.96
2000;BME280;1001;48.87406500;9.59633600;2022-07-24T04:13:30;95485.31;;;19.70;86.09
2000;BME280;1001;48.87406500;9.59633600;2022-07-24T04:15:57;95481.53;;;19.76;86.38
2000;BME280;1001;48.87406500;9.59633600;2022-07-24T04:18:24;95478.38;;;19.74;86.44
2000;BME280;1001;48.87406500;9.59633600;2022-07-24T04:20:51;95488.44;;;19.77;86.24
2000;BME280;1001;48.87406500;9.59633600;2022-07-24T04:23:18;95487.91;;;19.80;86.47
2000;BME280;1001;48.87406500;9.59633600;2022-07-24T04:25:45;95486.47;;;19.93;86.23
2000;BME280;1001;48.87406500;9.59633600;2022-07-24T04:28:12;95485.88;;;20.01;85.73
2000;BME280;1001;48.87406500;9.59633600;2022-07-24T04:30:40;95499.03;;;20.16;85.66
2000;BME280;1001;48.87406500;9.59633600;2022-07-24T04:33:07;95496.09;;;20.22;85.71
2000;BME280;1001;48.87406500;9.59633600;2022-07-24T04:35:36;95497.91;;;20.27;85.58
2000;BME280;1001;48.87406500;9.59633600;2022-07-24T04:38:02;95492.50;;;20.37;84.77
2000;BME280;1001;48.87406500;9.59633600;2022-07-24T04:40:29;95501.97;;;20.48;84.83
2000;BME280;1001;48.87406500;9.59633600;2022-07-24T04:42:56;95504.53;;;20.58;84.38
2000;BME280;1001;48.87406500;9.59633600;2022-07-24T04:45:22;95507.69;;;20.60;84.31
2000;BME280;1001;48.87406500;9.59633600;2022-07-24T04:47:50;95504.69;;;20.67;83.33
2000;BME280;1001;48.87406500;9.59633600;2022-07-24T04:50:17;95497.84;;;20.61;83.74
2000;BME280;1001;48.87406500;9.59633600;2022-07-24T04:52:44;95512.78;;;20.80;83.00
2000;BME280;1001;48.87406500;9.59633600;2022-07-24T04:55:11;95515.69;;;20.84;82.99
2000;BME280;1001;48.87406500;9.59633600;2022-07-24T04:57:38;95504.13;;;20.93;82.90
2000;BME280;1001;48.87406500;9.59633600;2022-07-24T05:00:07;95504.19;;;20.88;83.48
2000;BME280;1001;48.87406500;9.59633600;2022-07-24T05:02:35;95506.81;;;20.93;84.15
2000;BME280;1001;48.87406500;9.59633600;2022-07-24T05:05:04;95514.47;;;20.95;84.36
2000;BME280;1001;48.87406500;9.59633600;2022-07-24T05:07:31;95513.13;;;20.97;84.96
2000;BME280;1001;48.87406500;9.59633600;2022-07-24T05:09:58;95522.13;;;21.01;84.90
2000;BME280;1001;48.87406500;9.59633600;2022-07-24T05:12:25;95517.66;;;20.97;85.21
2000;BME280;1001;48.87406500;9.59633600;2022-07-24T05:14:51;95515.97;;;21.06;84.71
2000;BME280;1001;48.87406500;9.59633600;2022-07-24T05:17:18;95523.63;;;21.13;84.34
2000;BME280;1001;48.87406500;9.59633600;2022-07-24T05:19:45;95521.75;;;21.13;84.93
2000;BME280;1001;48.87406500;9.59633600;2022-07-24T05:22:13;95521.41;;;21.20;83.96
2000;BME280;1001;48.87406500;9.59633600;2022-07-24T05:24:40;95521.81;;;21.32;84.04
2000;BME280;1001;48.87406500;9.59633600;2022-07-24T05:27:09;95527.03;;;21.37;83.60
2000;BME280;1001;48.87406500;9.59633600;2022-07-24T05:29:36;95525.41;;;21.41;83.35
2000;BME280;1001;48.87406500;9.59633600;2022-07-24T05:32:03;95524.63;;;21.59;83.31
2000;BME280;1001;48.87406500;9.59633600;2022-07-24T05:34:30;95525.00;;;21.71;83.01
2000;BME280;1001;48.87406500;9.59633600;2022-07-24T05:36:57;95517.19;;;21.75;81.12
2000;BME280;1001;48.87406500;9.59633600;2022-07-24T05:39:25;95523.75;;;21.63;81.26
2000;BME280;1001;48.87406500;9.59633600;2022-07-24T05:41:53;95518.09;;;21.89;79.77
2000;BME280;1001;48.87406500;9.59633600;2022-07-24T05:44:22;95515.66;;;21.92;78.03
2000;BME280;1001;48.87406500;9.59633600;2022-07-24T05:46:49;95525.44;;;21.97;77.45
2000;BME280;1001;48.87406500;9.59633600;2022-07-24T05:49:16;95527.06;;;22.11;77.97
2000;BME280;1001;48.87406500;9.59633600;2022-07-24T05:51:42;95527.00;;;22.16;77.84
2000;BME280;1001;48.87406500;9.59633600;2022-07-24T05:54:09;95526.47;;;22.33;76.43
2000;BME280;1001;48.87406500;9.59633600;2022-07-24T05:56:37;95512.66;;;22.31;76.02
2000;BME280;1001;48.87406500;9.59633600;2022-07-24T05:59:04;95513.16;;;22.47;76.20
2000;BME280;1001;48.87406500;9.59633600;2022-07-24T06:01:30;95512.38;;;22.46;75.54
2000;BME280;1001;48.87406500;9.59633600;2022-07-24T06:03:57;95527.75;;;22.68;74.41
2000;BME280;1001;48.87406500;9.59633600;2022-07-24T06:06:24;95524.72;;;23.01;74.21
2000;BME280;1001;48.87406500;9.59633600;2022-07-24T06:08:51;95517.50;;;23.43;71.54
2000;BME280;1001;48.87406500;9.59633600;2022-07-24T06:11:17;95526.19;;;23.98;69.35
2000;BME280;1001;48.87406500;9.59633600;2022-07-24T06:13:46;95532.50;;;24.68;66.25
2000;BME280;1001;48.87406500;9.59633600;2022-07-24T06:16:13;95532.47;;;25.30;63.75
2000;BME280;1001;48.87406500;9.59633600;2022-07-24T06:18:40;95536.25;;;25.85;61.87
2000;BME280;1001;48.87406500;9.59633600;2022-07-24T06:21:07;95544.97;;;26.16;60.14
2000;BME280;1001;48.87406500;9.59633600;2022-07-24T06:23:34;95537.03;;;26.54;58.24
2000;BME280;1001;48.87406500;9.59633600;2022-07-24T06:26:00;95544.25;;;26.88;57.25
2000;BME280;1001;48.87406500;9.59633600;2022-07-24T06:28:27;95544.03;;;27.02;56.79
2000;BME280;1001;48.87406500;9.59633600;2022-07-24T06:30:56;95542.50;;;26.92;57.32
2000;BME280;1001;48.87406500;9.59633600;2022-07-24T06:33:23;95552.38;;;27.00;55.96
2000;BME280;1001;48.87406500;9.59633600;2022-07-24T06:35:49;95550.53;;;27.38;54.90
2000;BME280;1001;48.87406500;9.59633600;2022-07-24T06:38:16;95554.50;;;27.32;54.94
2000;BME280;1001;48.87406500;9.59633600;2022-07-24T06:40:43;95564.50;;;27.61;55.18
2000;BME280;1001;48.87406500;9.59633600;2022-07-24T06:43:09;95557.81;;;27.88;52.66
2000;BME280;1001;48.87406500;9.59633600;2022-07-24T06:45:36;95559.34;;;27.97;53.37
2000;BME280;1001;48.87406500;9.59633600;2022-07-24T06:48:05;95560.66;;;27.91;51.36
2000;BME280;1001;48.87406500;9.59633600;2022-07-24T06:50:32;95557.09;;;27.79;50.06
2000;BME280;1001;48.87406500;9.59633600;2022-07-24T06:52:59;95556.97;;;27.75;50.63
2000;BME280;1001;48.87406500;9.59633600;2022-07-24T06:55:26;95554.84;;;28.10;50.36
2000;BME280;1001;48.87406500;9.59633600;2022-07-24T06:57:53;95557.94;;;28.00;49.05
2000;BME280;1001;48.87406500;9.59633600;2022-07-24T07:00:20;95554.78;;;28.18;50.17
2000;BME280;1001;48.87406500;9.59633600;2022-07-24T07:02:47;95557.53;;;28.30;49.29
2000;BME280;1001;48.87406500;9.59633600;2022-07-24T07:05:16;95557.13;;;28.41;48.34
2000;BME280;1001;48.87406500;9.59633600;2022-07-24T07:07:44;95549.34;;;28.27;49.61
2000;BME280;1001;48.87406500;9.59633600;2022-07-24T07:10:10;95554.88;;;28.43;50.81
2000;BME280;1001;48.87406500;9.59633600;2022-07-24T07:12:37;95560.06;;;28.68;49.21
2000;BME280;1001;48.87406500;9.59633600;2022-07-24T07:15:05;95562.81;;;28.92;48.49
2000;BME280;1001;48.87406500;9.59633600;2022-07-24T07:17:32;95552.97;;;28.10;50.09
2000;BME280;1001;48.87406500;9.59633600;2022-07-24T07:20:01;95565.25;;;28.53;49.44
2000;BME280;1001;48.87406500;9.59633600;2022-07-24T07:22:29;95548.97;;;28.49;48.39
2000;BME280;1001;48.87406500;9.59633600;2022-07-24T07:24:56;95560.59;;;28.62;49.58
2000;BME280;1001;48.87406500;9.59633600;2022-07-24T07:27:23;95564.09;;;29.07;47.69
2000;BME280;1001;48.87406500;9.59633600;2022-07-24T07:29:49;95559.53;;;28.54;49.03
2000;BME280;1001;48.87406500;9.59633600;2022-07-24T07:32:16;95558.22;;;28.27;50.07
2000;BME280;1001;48.87406500;9.59633600;2022-07-24T07:34:43;95565.34;;;28.44;48.72
2000;BME280;1001;48.87406500;9.59633600;2022-07-24T07:37:10;95562.97;;;28.43;50.77
2000;BME280;1001;48.87406500;9.59633600;2022-07-24T07:39:38;95560.19;;;28.72;49.18
2000;BME280;1001;48.87406500;9.59633600;2022-07-24T07:42:05;95557.25;;;28.65;49.78
2000;BME280;1001;48.87406500;9.59633600;2022-07-24T07:44:31;95564.97;;;29.11;48.43
2000;BME280;1001;48.87406500;9.59633600;2022-07-24T07:46:58;95565.16;;;28.94;49.59
2000;BME280;1001;48.87406500;9.59633600;2022-07-24T07:49:25;95569.19;;;28.88;49.00
2000;BME280;1001;48.87406500;9.59633600;2022-07-24T07:51:51;95570.53;;;29.27;47.50
2000;BME280;1001;48.87406500;9.59633600;2022-07-24T07:54:18;95567.59;;;29.32;48.09
2000;BME280;1001;48.87406500;9.59633600;2022-07-24T07:56:47;95574.91;;;29.19;47.21
2000;BME280;1001;48.87406500;9.59633600;2022-07-24T07:59:13;95572.66;;;28.76;47.28
2000;BME280;1001;48.87406500;9.59633600;2022-07-24T08:01:40;95571.19;;;28.79;49.22
2000;BME280;1001;48.87406500;9.59633600;2022-07-24T08:04:07;95579.19;;;29.44;47.89
2000;BME280;1001;48.87406500;9.59633600;2022-07-24T08:06:34;95581.63;;;28.80;47.11
2000;BME280;1001;48.87406500;9.59633600;2022-07-24T08:09:02;95587.94;;;29.65;47.12
2000;BME280;1001;48.87406500;9.59633600;2022-07-24T08:11:29;95587.41;;;29.84;44.85
2000;BME280;1001;48.87406500;9.59633600;2022-07-24T08:13:57;95580.63;;;30.14;44.63
2000;BME280;1001;48.87406500;9.59633600;2022-07-24T08:16:24;95585.09;;;30.22;44.93
2000;BME280;1001;48.87406500;9.59633600;2022-07-24T08:18:51;95582.13;;;30.00;45.72
2000;BME280;1001;48.87406500;9.59633600;2022-07-24T08:21:18;95573.72;;;30.17;42.91
2000;BME280;1001;48.87406500;9.59633600;2022-07-24T08:23:45;95572.81;;;29.85;45.42
2000;BME280;1001;48.87406500;9.59633600;2022-07-24T08:26:12;95565.63;;;29.77;45.95
2000;BME280;1001;48.87406500;9.59633600;2022-07-24T08:28:40;95577.19;;;29.90;44.33
2000;BME280;1001;48.87406500;9.59633600;2022-07-24T08:31:08;95567.75;;;29.35;47.17
2000;BME280;1001;48.87406500;9.59633600;2022-07-24T08:33:35;95565.50;;;29.74;47.23
2000;BME280;1001;48.87406500;9.59633600;2022-07-24T08:36:02;95564.81;;;29.40;48.30
2000;BME280;1001;48.87406500;9.59633600;2022-07-24T08:38:29;95570.66;;;29.54;46.74
2000;BME280;1001;48.87406500;9.59633600;2022-07-24T08:40:56;95575.03;;;29.59;46.77
2000;BME280;1001;48.87406500;9.59633600;2022-07-24T08:43:23;95562.78;;;29.37;47.79
2000;BME280;1001;48.87406500;9.59633600;2022-07-24T08:45:54;95555.56;;;29.05;47.10
2000;BME280;1001;48.87406500;9.59633600;2022-07-24T08:48:23;95563.34;;;29.19;48.34
2000;BME280;1001;48.87406500;9.59633600;2022-07-24T08:50:51;95555.41;;;28.89;47.89
2000;BME280;1001;48.87406500;9.59633600;2022-07-24T08:53:19;95560.72;;;28.98;48.36
2000;BME280;1001;48.87406500;9.59633600;2022-07-24T08:55:47;95546.63;;;28.80;48.25
2000;BME280;1001;48.87406500;9.59633600;2022-07-24T08:58:14;95551.69;;;28.94;49.23
2000;BME280;1001;48.87406500;9.59633600;2022-07-24T09:00:42;95549.31;;;28.80;46.94
2000;BME280;1001;48.87406500;9.59633600;2022-07-24T09:03:09;95560.50;;;29.03;47.51
2000;BME280;1001;48.87406500;9.59633600;2022-07-24T09:08:37;95556.97;;;29.47;45.68
2000;BME280;1001;48.87406500;9.59633600;2022-07-24T09:11:04;95559.31;;;29.61;45.04
2000;BME280;1001;48.87406500;9.59633600;2022-07-24T09:13:33;95566.94;;;29.71;45.72
2000;BME280;1001;48.87406500;9.59633600;2022-07-24T09:16:17;95557.53;;;29.53;44.85
2000;BME280;1001;48.87406500;9.59633600;2022-07-24T09:18:47;95560.31;;;29.44;46.66
2000;BME280;1001;48.87406500;9.59633600;2022-07-24T09:21:16;95557.97;;;29.43;45.50
2000;BME280;1001;48.87406500;9.59633600;2022-07-24T09:23:44;95556.84;;;29.68;45.20
2000;BME280;1001;48.87406500;9.59633600;2022-07-24T09:26:11;95566.75;;;29.76;41.92
2000;BME280;1001;48.87406500;9.59633600;2022-07-24T09:28:52;95562.78;;;29.74;42.83
2000;BME280;1001;48.87406500;9.59633600;2022-07-24T09:31:19;95553.31;;;30.04;42.54
2000;BME280;1001;48.87406500;9.59633600;2022-07-24T09:33:48;95556.63;;;29.85;43.31
2000;BME280;1001;48.87406500;9.59633600;2022-07-24T09:36:16;95551.38;;;29.77;44.18
2000;BME280;1001;48.87406500;9.59633600;2022-07-24T09:38:46;95553.22;;;30.00;43.99
2000;BME280;1001;48.87406500;9.59633600;2022-07-24T09:41:19;95553.25;;;29.88;44.26
2000;BME280;1001;48.87406500;9.59633600;2022-07-24T09:43:56;95559.75;;;29.75;44.53
2000;BME280;1001;48.87406500;9.59633600;2022-07-24T09:46:24;95559.59;;;30.08;43.39
2000;BME280;1001;48.87406500;9.59633600;2022-07-24T09:48:53;95558.97;;;29.62;43.66
2000;BME280;1001;48.87406500;9.59633600;2022-07-24T09:51:21;95558.03;;;30.07;44.24
2000;BME280;1001;48.87406500;9.59633600;2022-07-24T09:53:54;95558.09;;;30.22;43.53
2000;BME280;1001;48.87406500;9.59633600;2022-07-24T09:56:21;95554.59;;;30.34;43.32
2000;BME280;1001;48.87406500;9.59633600;2022-07-24T09:58:50;95557.06;;;30.67;41.29
2000;BME280;1001;48.87406500;9.59633600;2022-07-24T10:01:21;95557.19;;;30.43;42.59
2000;BME280;1001;48.87406500;9.59633600;2022-07-24T10:03:48;95555.81;;;30.64;43.77
2000;BME280;1001;48.87406500;9.59633600;2022-07-24T10:06:18;95562.38;;;30.91;43.77
2000;BME280;1001;48.87406500;9.59633600;2022-07-24T10:08:47;95551.75;;;30.98;42.45
2000;BME280;1001;48.87406500;9.59633600;2022-07-24T10:11:16;95551.91;;;30.34;40.76
2000;BME280;1001;48.87406500;9.59633600;2022-07-24T10:13:43;95555.78;;;30.49;40.93
2000;BME280;1001;48.87406500;9.59633600;2022-07-24T10:16:29;95547.09;;;30.55;40.94
2000;BME280;1001;48.87406500;9.59633600;2022-07-24T10:18:57;95538.34;;;30.74;42.35
2000;BME280;1001;48.87406500;9.59633600;2022-07-24T10:21:26;95540.53;;;30.41;41.44
2000;BME280;1001;48.87406500;9.59633600;2022-07-24T10:24:12;95535.72;;;30.62;41.75
2000;BME280;1001;48.87406500;9.59633600;2022-07-24T10:26:47;95540.69;;;31.03;41.67
2000;BME280;1001;48.87406500;9.59633600;2022-07-24T10:29:17;95542.63;;;31.18;40.26
2000;BME280;1001;48.87406500;9.59633600;2022-07-24T10:31:45;95536.63;;;30.81;41.24
2000;BME280;1001;48.87406500;9.59633600;2022-07-24T10:34:18;95545.09;;;30.95;43.34
2000;BME280;1001;48.87406500;9.59633600;2022-07-24T10:36:55;95533.53;;;30.95;41.98
2000;BME280;1001;48.87406500;9.59633600;2022-07-24T10:39:28;95540.00;;;31.06;41.71
2000;BME280;1001;48.87406500;9.59633600;2022-07-24T10:42:03;95534.84;;;31.01;40.36
2000;BME280;1001;48.87406500;9.59633600;2022-07-24T10:44:30;95527.50;;;30.58;41.91
2000;BME280;1001;48.87406500;9.59633600;2022-07-24T10:46:58;95527.28;;;30.63;43.81
2000;BME280;1001;48.87406500;9.59633600;2022-07-24T10:49:46;95519.84;;;30.60;41.10
2000;BME280;1001;48.87406500;9.59633600;2022-07-24T10:52:25;95536.63;;;30.81;41.83
2000;BME280;1001;48.87406500;9.59633600;2022-07-24T10:55:24;95529.22;;;30.78;40.54
2000;BME280;1001;48.87406500;9.59633600;2022-07-24T10:57:58;95539.03;;;30.99;41.71
2000;BME280;1001;48.87406500;9.59633600;2022-07-24T11:00:29;95528.13;;;30.95;42.44
2000;BME280;1001;48.87406500;9.59633600;2022-07-24T11:02:59;95522.28;;;30.93;41.83
2000;BME280;1001;48.87406500;9.59633600;2022-07-24T11:05:30;95523.78;;;30.63;40.68
2000;BME280;1001;48.87406500;9.59633600;2022-07-24T11:08:27;95521.84;;;30.08;41.56
2000;BME280;1001;48.87406500;9.59633600;2022-07-24T11:11:06;95519.03;;;30.04;42.67
2000;BME280;1001;48.87406500;9.59633600;2022-07-24T11:13:51;95517.75;;;30.26;42.01
2000;BME280;1001;48.87406500;9.59633600;2022-07-24T11:16:29;95522.91;;;30.31;41.13
2000;BME280;1001;48.87406500;9.59633600;2022-07-24T11:19:24;95509.53;;;30.35;41.54
2000;BME280;1001;48.87406500;9.59633600;2022-07-24T11:22:01;95511.88;;;30.79;41.26
2000;BME280;1001;48.87406500;9.59633600;2022-07-24T11:24:28;95506.53;;;30.67;42.54
2000;BME280;1001;48.87406500;9.59633600;2022-07-24T11:26:56;95507.44;;;30.71;40.94
2000;BME280;1001;48.87406500;9.59633600;2022-07-24T11:29:27;95500.41;;;30.27;40.74
2000;BME280;1001;48.87406500;9.59633600;2022-07-24T11:31:58;95496.78;;;30.63;40.48
2000;BME280;1001;48.87406500;9.59633600;2022-07-24T11:34:26;95498.53;;;30.71;40.44
2000;BME280;1001;48.87406500;9.59633600;2022-07-24T11:36:54;95497.88;;;30.18;41.64
2000;BME280;1001;48.87406500;9.59633600;2022-07-24T11:39:26;95490.84;;;30.02;41.59
2000;BME280;1001;48.87406500;9.59633600;2022-07-24T11:41:55;95487.63;;;29.84;42.34
2000;BME280;1001;48.87406500;9.59633600;2022-07-24T11:44:26;95489.19;;;29.85;42.85
2000;BME280;1001;48.87406500;9.59633600;2022-07-24T11:46:54;95491.97;;;30.28;43.71
2000;BME280;1001;48.87406500;9.59633600;2022-07-24T11:49:23;95482.75;;;30.02;42.64
2000;BME280;1001;48.87406500;9.59633600;2022-07-24T11:51:51;95483.53;;;29.50;42.34